Much Wenlock, United Kingdom
Current Conditions -  °F | °C
As of 2:50 PM on Monday 22 Dec 2014 (Local Time) from EGOS Reporting Station
Broken Clouds Broken Clouds  
Wind Chill: 55°   Ceiling: 3000
Heat Index: 55°   Visibility: 6mi
Dew Point: 46°   Wind: 23mph
Humidity: 72%   Direction: 230°SW
Pressure: 29.88"   Gusts: NA
Location:  52.6°N, 2.56°W
Report Text: EGOS 221450Z AUTO 23020KT 9999 BKN030/// SCT120/// 13/08 Q1012
Loading
Personal Weather Stations






























Interactive Weather Map New forecast layout! Learn more

10-Day Weather Forecast

Advertisements
Track Severe Weather on mobile